sensor_id;sensor_type;location;lat;lon;timestamp;P1;durP1;ratioP1;P2;durP2;ratioP2
23416;SDS011;11881;42.432;25.632;2022-09-13T00:00:20;1.43;;;1.20;;
23416;SDS011;11881;42.432;25.632;2022-09-13T00:02:45;1.17;;;1.10;;
23416;SDS011;11881;42.432;25.632;2022-09-13T00:05:11;2.87;;;1.30;;
23416;SDS011;11881;42.432;25.632;2022-09-13T00:07:36;2.67;;;1.20;;
23416;SDS011;11881;42.432;25.632;2022-09-13T00:10:02;2.30;;;1.20;;
23416;SDS011;11881;42.432;25.632;2022-09-13T00:12:28;1.83;;;1.00;;
23416;SDS011;11881;42.432;25.632;2022-09-13T00:14:53;1.20;;;1.10;;
23416;SDS011;11881;42.432;25.632;2022-09-13T00:17:19;1.20;;;1.10;;
23416;SDS011;11881;42.432;25.632;2022-09-13T00:19:45;1.50;;;1.40;;
23416;SDS011;11881;42.432;25.632;2022-09-13T00:22:10;3.27;;;1.70;;
23416;SDS011;11881;42.432;25.632;2022-09-13T00:24:36;3.17;;;1.50;;
23416;SDS011;11881;42.432;25.632;2022-09-13T00:27:01;3.07;;;1.80;;
23416;SDS011;11881;42.432;25.632;2022-09-13T00:29:27;1.90;;;1.80;;
23416;SDS011;11881;42.432;25.632;2022-09-13T00:31:53;2.97;;;1.90;;
23416;SDS011;11881;42.432;25.632;2022-09-13T00:34:18;2.23;;;2.07;;
23416;SDS011;11881;42.432;25.632;2022-09-13T00:36:44;2.23;;;2.10;;
23416;SDS011;11881;42.432;25.632;2022-09-13T00:39:09;2.10;;;2.00;;
23416;SDS011;11881;42.432;25.632;2022-09-13T00:41:35;2.27;;;2.07;;
23416;SDS011;11881;42.432;25.632;2022-09-13T00:44:01;2.50;;;1.90;;
23416;SDS011;11881;42.432;25.632;2022-09-13T00:49:08;5.87;;;2.00;;
23416;SDS011;11881;42.432;25.632;2022-09-13T00:51:39;2.83;;;1.80;;
23416;SDS011;11881;42.432;25.632;2022-09-13T00:54:10;6.93;;;1.77;;
23416;SDS011;11881;42.432;25.632;2022-09-13T00:56:38;3.63;;;1.73;;
23416;SDS011;11881;42.432;25.632;2022-09-13T00:59:22;3.10;;;1.70;;
23416;SDS011;11881;42.432;25.632;2022-09-13T01:01:52;1.77;;;1.67;;
23416;SDS011;11881;42.432;25.632;2022-09-13T01:04:20;2.40;;;1.80;;
23416;SDS011;11881;42.432;25.632;2022-09-13T01:06:49;2.23;;;1.70;;
23416;SDS011;11881;42.432;25.632;2022-09-13T01:09:18;2.00;;;1.90;;
23416;SDS011;11881;42.432;25.632;2022-09-13T01:11:56;2.27;;;2.07;;
23416;SDS011;11881;42.432;25.632;2022-09-13T01:14:28;2.57;;;1.90;;
23416;SDS011;11881;42.432;25.632;2022-09-13T01:16:54;3.10;;;1.77;;
23416;SDS011;11881;42.432;25.632;2022-09-13T01:19:20;1.80;;;1.70;;
23416;SDS011;11881;42.432;25.632;2022-09-13T01:30:22;1.60;;;1.50;;
23416;SDS011;11881;42.432;25.632;2022-09-13T01:44:11;1.77;;;1.67;;
23416;SDS011;11881;42.432;25.632;2022-09-13T01:46:49;3.20;;;1.70;;
23416;SDS011;11881;42.432;25.632;2022-09-13T01:49:30;1.73;;;1.63;;
23416;SDS011;11881;42.432;25.632;2022-09-13T01:52:10;1.80;;;1.70;;
23416;SDS011;11881;42.432;25.632;2022-09-13T02:00:36;1.83;;;1.73;;
23416;SDS011;11881;42.432;25.632;2022-09-13T02:03:08;2.30;;;2.10;;
23416;SDS011;11881;42.432;25.632;2022-09-13T02:05:53;2.10;;;1.90;;
23416;SDS011;11881;42.432;25.632;2022-09-13T02:11:08;3.10;;;1.73;;
23416;SDS011;11881;42.432;25.632;2022-09-13T02:13:37;2.87;;;1.90;;
23416;SDS011;11881;42.432;25.632;2022-09-13T02:16:17;3.80;;;2.40;;
23416;SDS011;11881;42.432;25.632;2022-09-13T02:18:53;3.03;;;2.40;;
23416;SDS011;11881;42.432;25.632;2022-09-13T02:21:28;3.03;;;2.20;;
23416;SDS011;11881;42.432;25.632;2022-09-13T02:24:03;3.73;;;2.40;;
23416;SDS011;11881;42.432;25.632;2022-09-13T02:26:31;5.23;;;2.20;;
23416;SDS011;11881;42.432;25.632;2022-09-13T02:29:02;2.53;;;1.93;;
23416;SDS011;11881;42.432;25.632;2022-09-13T02:34:30;4.30;;;2.17;;
23416;SDS011;11881;42.432;25.632;2022-09-13T02:36:59;4.50;;;1.90;;
23416;SDS011;11881;42.432;25.632;2022-09-13T02:39:26;3.97;;;2.10;;
23416;SDS011;11881;42.432;25.632;2022-09-13T02:41:56;3.57;;;1.80;;
23416;SDS011;11881;42.432;25.632;2022-09-13T02:52:49;5.70;;;2.13;;
23416;SDS011;11881;42.432;25.632;2022-09-13T02:55:25;6.83;;;2.20;;
23416;SDS011;11881;42.432;25.632;2022-09-13T02:57:59;4.60;;;2.23;;
23416;SDS011;11881;42.432;25.632;2022-09-13T03:00:30;5.93;;;2.40;;
23416;SDS011;11881;42.432;25.632;2022-09-13T03:02:56;5.47;;;2.27;;
23416;SDS011;11881;42.432;25.632;2022-09-13T03:05:26;6.40;;;2.20;;
23416;SDS011;11881;42.432;25.632;2022-09-13T03:07:52;7.57;;;2.23;;
23416;SDS011;11881;42.432;25.632;2022-09-13T03:10:18;2.87;;;1.80;;
23416;SDS011;11881;42.432;25.632;2022-09-13T03:21:00;5.00;;;1.50;;
23416;SDS011;11881;42.432;25.632;2022-09-13T03:28:52;5.90;;;2.20;;
23416;SDS011;11881;42.432;25.632;2022-09-13T03:31:22;5.47;;;1.80;;
23416;SDS011;11881;42.432;25.632;2022-09-13T03:34:12;6.30;;;1.60;;
23416;SDS011;11881;42.432;25.632;2022-09-13T03:36:55;4.83;;;1.67;;
23416;SDS011;11881;42.432;25.632;2022-09-13T03:42:06;4.90;;;1.50;;
23416;SDS011;11881;42.432;25.632;2022-09-13T03:44:40;2.37;;;1.70;;
23416;SDS011;11881;42.432;25.632;2022-09-13T03:47:08;4.87;;;1.80;;
23416;SDS011;11881;42.432;25.632;2022-09-13T03:49:35;2.93;;;1.70;;
23416;SDS011;11881;42.432;25.632;2022-09-13T03:52:03;4.13;;;1.90;;
23416;SDS011;11881;42.432;25.632;2022-09-13T03:54:29;6.80;;;1.47;;
23416;SDS011;11881;42.432;25.632;2022-09-13T03:57:15;5.03;;;1.30;;
23416;SDS011;11881;42.432;25.632;2022-09-13T03:59:45;8.27;;;2.00;;
23416;SDS011;11881;42.432;25.632;2022-09-13T04:02:12;2.23;;;2.03;;
23416;SDS011;11881;42.432;25.632;2022-09-13T04:04:38;3.47;;;1.70;;
23416;SDS011;11881;42.432;25.632;2022-09-13T04:07:06;2.97;;;1.87;;
23416;SDS011;11881;42.432;25.632;2022-09-13T04:09:32;3.80;;;1.60;;
23416;SDS011;11881;42.432;25.632;2022-09-13T04:11:58;2.93;;;1.30;;
23416;SDS011;11881;42.432;25.632;2022-09-13T04:14:23;3.87;;;1.90;;
23416;SDS011;11881;42.432;25.632;2022-09-13T04:16:54;5.67;;;1.63;;
23416;SDS011;11881;42.432;25.632;2022-09-13T04:19:21;6.77;;;1.67;;
23416;SDS011;11881;42.432;25.632;2022-09-13T04:21:47;7.90;;;1.70;;
23416;SDS011;11881;42.432;25.632;2022-09-13T04:24:13;4.10;;;1.80;;
23416;SDS011;11881;42.432;25.632;2022-09-13T04:26:39;6.30;;;1.70;;
23416;SDS011;11881;42.432;25.632;2022-09-13T04:29:04;6.27;;;1.87;;
23416;SDS011;11881;42.432;25.632;2022-09-13T04:31:30;8.70;;;1.87;;
23416;SDS011;11881;42.432;25.632;2022-09-13T04:33:55;3.73;;;1.90;;
23416;SDS011;11881;42.432;25.632;2022-09-13T04:36:21;7.70;;;2.03;;
23416;SDS011;11881;42.432;25.632;2022-09-13T04:38:46;10.83;;;2.00;;
23416;SDS011;11881;42.432;25.632;2022-09-13T04:41:12;6.50;;;1.87;;
23416;SDS011;11881;42.432;25.632;2022-09-13T04:43:37;11.67;;;2.10;;
23416;SDS011;11881;42.432;25.632;2022-09-13T04:46:03;8.60;;;2.07;;
23416;SDS011;11881;42.432;25.632;2022-09-13T04:48:28;10.77;;;2.00;;
23416;SDS011;11881;42.432;25.632;2022-09-13T04:50:59;10.13;;;2.70;;
23416;SDS011;11881;42.432;25.632;2022-09-13T04:53:26;14.80;;;1.90;;
23416;SDS011;11881;42.432;25.632;2022-09-13T04:55:51;10.10;;;1.80;;
23416;SDS011;11881;42.432;25.632;2022-09-13T04:58:17;7.60;;;1.90;;
23416;SDS011;11881;42.432;25.632;2022-09-13T05:00:42;9.20;;;2.03;;
23416;SDS011;11881;42.432;25.632;2022-09-13T05:03:08;6.77;;;2.10;;
23416;SDS011;11881;42.432;25.632;2022-09-13T05:05:33;4.57;;;1.83;;
23416;SDS011;11881;42.432;25.632;2022-09-13T05:07:58;6.63;;;1.97;;
23416;SDS011;11881;42.432;25.632;2022-09-13T05:10:24;8.40;;;3.60;;
23416;SDS011;11881;42.432;25.632;2022-09-13T05:12:50;5.93;;;2.10;;
23416;SDS011;11881;42.432;25.632;2022-09-13T05:15:16;13.80;;;4.73;;
23416;SDS011;11881;42.432;25.632;2022-09-13T05:17:42;16.50;;;7.00;;
23416;SDS011;11881;42.432;25.632;2022-09-13T05:20:07;15.40;;;6.47;;
23416;SDS011;11881;42.432;25.632;2022-09-13T05:22:33;10.67;;;6.23;;
23416;SDS011;11881;42.432;25.632;2022-09-13T05:24:59;19.97;;;6.53;;
23416;SDS011;11881;42.432;25.632;2022-09-13T05:27:24;15.43;;;6.57;;
23416;SDS011;11881;42.432;25.632;2022-09-13T05:29:49;17.83;;;7.50;;
23416;SDS011;11881;42.432;25.632;2022-09-13T05:32:15;16.83;;;7.33;;
23416;SDS011;11881;42.432;25.632;2022-09-13T05:34:40;15.63;;;6.87;;
23416;SDS011;11881;42.432;25.632;2022-09-13T05:37:06;15.20;;;7.07;;
23416;SDS011;11881;42.432;25.632;2022-09-13T05:39:31;17.30;;;6.83;;
23416;SDS011;11881;42.432;25.632;2022-09-13T05:41:56;16.17;;;7.00;;
23416;SDS011;11881;42.432;25.632;2022-09-13T05:44:22;23.80;;;6.90;;
23416;SDS011;11881;42.432;25.632;2022-09-13T05:46:48;18.27;;;6.83;;
23416;SDS011;11881;42.432;25.632;2022-09-13T05:49:13;21.90;;;7.27;;
23416;SDS011;11881;42.432;25.632;2022-09-13T05:51:39;24.93;;;6.70;;
23416;SDS011;11881;42.432;25.632;2022-09-13T05:54:05;23.40;;;6.80;;
23416;SDS011;11881;42.432;25.632;2022-09-13T05:56:30;15.33;;;5.87;;
23416;SDS011;11881;42.432;25.632;2022-09-13T05:58:56;9.37;;;4.47;;
23416;SDS011;11881;42.432;25.632;2022-09-13T06:01:23;13.30;;;4.77;;
23416;SDS011;11881;42.432;25.632;2022-09-13T06:03:51;13.57;;;4.30;;
23416;SDS011;11881;42.432;25.632;2022-09-13T06:06:19;9.03;;;4.00;;
23416;SDS011;11881;42.432;25.632;2022-09-13T06:08:45;9.23;;;4.00;;
23416;SDS011;11881;42.432;25.632;2022-09-13T06:11:12;6.83;;;3.10;;
23416;SDS011;11881;42.432;25.632;2022-09-13T06:13:38;6.90;;;3.07;;
23416;SDS011;11881;42.432;25.632;2022-09-13T06:16:06;17.30;;;3.90;;
23416;SDS011;11881;42.432;25.632;2022-09-13T06:18:33;8.83;;;2.33;;
23416;SDS011;11881;42.432;25.632;2022-09-13T06:21:04;15.50;;;4.10;;
23416;SDS011;11881;42.432;25.632;2022-09-13T06:23:34;14.13;;;5.00;;
23416;SDS011;11881;42.432;25.632;2022-09-13T06:26:07;12.40;;;7.20;;
23416;SDS011;11881;42.432;25.632;2022-09-13T06:28:34;32.23;;;11.57;;
23416;SDS011;11881;42.432;25.632;2022-09-13T06:33:26;29.33;;;10.30;;
23416;SDS011;11881;42.432;25.632;2022-09-13T06:35:51;27.07;;;10.27;;
23416;SDS011;11881;42.432;25.632;2022-09-13T06:38:17;23.67;;;8.00;;
23416;SDS011;11881;42.432;25.632;2022-09-13T06:40:42;24.80;;;9.97;;
23416;SDS011;11881;42.432;25.632;2022-09-13T06:43:08;25.23;;;8.70;;
23416;SDS011;11881;42.432;25.632;2022-09-13T06:45:35;16.27;;;6.10;;
23416;SDS011;11881;42.432;25.632;2022-09-13T06:48:01;21.73;;;6.20;;
23416;SDS011;11881;42.432;25.632;2022-09-13T06:50:27;11.27;;;5.10;;
23416;SDS011;11881;42.432;25.632;2022-09-13T06:52:52;20.97;;;5.73;;
23416;SDS011;11881;42.432;25.632;2022-09-13T06:55:20;13.47;;;4.60;;
23416;SDS011;11881;42.432;25.632;2022-09-13T06:57:46;10.03;;;3.87;;
23416;SDS011;11881;42.432;25.632;2022-09-13T07:00:11;13.40;;;4.00;;
23416;SDS011;11881;42.432;25.632;2022-09-13T07:02:37;6.90;;;3.00;;
23416;SDS011;11881;42.432;25.632;2022-09-13T07:05:02;4.60;;;2.50;;
23416;SDS011;11881;42.432;25.632;2022-09-13T07:07:28;6.10;;;2.10;;
23416;SDS011;11881;42.432;25.632;2022-09-13T07:09:54;4.40;;;2.93;;
23416;SDS011;11881;42.432;25.632;2022-09-13T07:12:20;5.77;;;2.77;;
23416;SDS011;11881;42.432;25.632;2022-09-13T07:14:46;5.07;;;2.80;;
23416;SDS011;11881;42.432;25.632;2022-09-13T07:17:11;7.03;;;3.43;;
23416;SDS011;11881;42.432;25.632;2022-09-13T07:19:36;6.00;;;3.00;;
23416;SDS011;11881;42.432;25.632;2022-09-13T07:22:02;3.70;;;2.93;;
23416;SDS011;11881;42.432;25.632;2022-09-13T07:24:28;5.87;;;2.40;;
23416;SDS011;11881;42.432;25.632;2022-09-13T07:26:54;8.07;;;4.17;;
23416;SDS011;11881;42.432;25.632;2022-09-13T07:29:20;4.47;;;2.10;;
23416;SDS011;11881;42.432;25.632;2022-09-13T07:31:48;7.27;;;2.10;;
23416;SDS011;11881;42.432;25.632;2022-09-13T07:34:16;4.03;;;1.90;;
23416;SDS011;11881;42.432;25.632;2022-09-13T07:36:43;6.10;;;1.80;;
23416;SDS011;11881;42.432;25.632;2022-09-13T07:39:10;4.60;;;1.63;;
23416;SDS011;11881;42.432;25.632;2022-09-13T07:41:37;5.37;;;2.27;;
23416;SDS011;11881;42.432;25.632;2022-09-13T07:44:02;6.43;;;2.37;;
23416;SDS011;11881;42.432;25.632;2022-09-13T07:46:31;2.97;;;1.90;;
23416;SDS011;11881;42.432;25.632;2022-09-13T07:48:58;4.50;;;2.30;;
23416;SDS011;11881;42.432;25.632;2022-09-13T07:51:25;6.90;;;2.23;;
23416;SDS011;11881;42.432;25.632;2022-09-13T07:53:53;6.07;;;1.93;;
23416;SDS011;11881;42.432;25.632;2022-09-13T07:56:24;5.63;;;2.00;;
23416;SDS011;11881;42.432;25.632;2022-09-13T07:58:52;5.63;;;2.33;;
23416;SDS011;11881;42.432;25.632;2022-09-13T08:01:38;6.63;;;2.13;;
23416;SDS011;11881;42.432;25.632;2022-09-13T08:04:10;3.90;;;1.70;;
23416;SDS011;11881;42.432;25.632;2022-09-13T08:06:37;5.27;;;2.00;;
23416;SDS011;11881;42.432;25.632;2022-09-13T08:09:04;5.87;;;2.13;;
23416;SDS011;11881;42.432;25.632;2022-09-13T08:11:32;3.10;;;1.90;;
23416;SDS011;11881;42.432;25.632;2022-09-13T08:14:19;4.07;;;1.83;;
23416;SDS011;11881;42.432;25.632;2022-09-13T08:16:46;2.60;;;1.57;;
23416;SDS011;11881;42.432;25.632;2022-09-13T08:19:13;4.77;;;1.53;;
23416;SDS011;11881;42.432;25.632;2022-09-13T08:21:42;7.80;;;2.40;;
23416;SDS011;11881;42.432;25.632;2022-09-13T08:24:12;8.87;;;2.33;;
23416;SDS011;11881;42.432;25.632;2022-09-13T08:26:39;2.70;;;1.70;;
23416;SDS011;11881;42.432;25.632;2022-09-13T08:29:05;4.67;;;2.50;;
23416;SDS011;11881;42.432;25.632;2022-09-13T08:31:32;3.70;;;2.40;;
23416;SDS011;11881;42.432;25.632;2022-09-13T08:33:58;3.30;;;2.03;;
23416;SDS011;11881;42.432;25.632;2022-09-13T08:36:25;4.17;;;2.30;;
23416;SDS011;11881;42.432;25.632;2022-09-13T08:38:53;3.93;;;1.77;;
23416;SDS011;11881;42.432;25.632;2022-09-13T08:44:15;7.63;;;2.10;;
23416;SDS011;11881;42.432;25.632;2022-09-13T08:46:50;4.00;;;1.70;;
23416;SDS011;11881;42.432;25.632;2022-09-13T08:49:27;4.90;;;2.10;;
23416;SDS011;11881;42.432;25.632;2022-09-13T08:52:42;5.17;;;1.70;;
23416;SDS011;11881;42.432;25.632;2022-09-13T08:55:20;3.03;;;2.13;;
23416;SDS011;11881;42.432;25.632;2022-09-13T09:00:48;3.63;;;1.70;;
23416;SDS011;11881;42.432;25.632;2022-09-13T09:05:54;7.23;;;1.20;;
23416;SDS011;11881;42.432;25.632;2022-09-13T09:08:24;4.07;;;1.00;;
23416;SDS011;11881;42.432;25.632;2022-09-13T09:10:55;3.80;;;1.63;;
23416;SDS011;11881;42.432;25.632;2022-09-13T09:15:56;1.33;;;1.10;;
23416;SDS011;11881;42.432;25.632;2022-09-13T09:18:31;1.77;;;1.20;;
23416;SDS011;11881;42.432;25.632;2022-09-13T09:21:01;3.20;;;1.50;;
23416;SDS011;11881;42.432;25.632;2022-09-13T09:26:16;3.07;;;1.47;;
23416;SDS011;11881;42.432;25.632;2022-09-13T09:28:42;5.17;;;1.43;;
23416;SDS011;11881;42.432;25.632;2022-09-13T09:31:16;7.77;;;1.50;;
23416;SDS011;11881;42.432;25.632;2022-09-13T09:34:08;2.60;;;1.43;;
23416;SDS011;11881;42.432;25.632;2022-09-13T09:36:59;8.43;;;1.30;;
23416;SDS011;11881;42.432;25.632;2022-09-13T09:39:31;6.40;;;1.27;;
23416;SDS011;11881;42.432;25.632;2022-09-13T09:42:02;3.10;;;1.13;;
23416;SDS011;11881;42.432;25.632;2022-09-13T09:44:29;2.07;;;1.17;;
23416;SDS011;11881;42.432;25.632;2022-09-13T09:46:59;5.73;;;1.20;;
23416;SDS011;11881;42.432;25.632;2022-09-13T09:55:13;6.97;;;1.60;;
23416;SDS011;11881;42.432;25.632;2022-09-13T10:00:27;4.87;;;1.30;;
23416;SDS011;11881;42.432;25.632;2022-09-13T10:02:59;3.93;;;1.00;;
23416;SDS011;11881;42.432;25.632;2022-09-13T10:05:31;5.20;;;1.20;;
23416;SDS011;11881;42.432;25.632;2022-09-13T10:10:34;2.40;;;0.97;;
23416;SDS011;11881;42.432;25.632;2022-09-13T10:13:07;2.13;;;1.07;;
23416;SDS011;11881;42.432;25.632;2022-09-13T10:15:50;5.43;;;1.20;;
23416;SDS011;11881;42.432;25.632;2022-09-13T10:18:19;3.97;;;1.40;;
23416;SDS011;11881;42.432;25.632;2022-09-13T10:23:27;3.77;;;1.30;;
23416;SDS011;11881;42.432;25.632;2022-09-13T10:25:58;2.70;;;1.40;;
23416;SDS011;11881;42.432;25.632;2022-09-13T10:28:27;3.20;;;1.53;;
23416;SDS011;11881;42.432;25.632;2022-09-13T10:31:06;2.87;;;1.60;;
23416;SDS011;11881;42.432;25.632;2022-09-13T10:33:35;3.37;;;1.30;;
23416;SDS011;11881;42.432;25.632;2022-09-13T10:36:47;9.07;;;1.97;;
23416;SDS011;11881;42.432;25.632;2022-09-13T10:41:38;2.17;;;1.10;;
23416;SDS011;11881;42.432;25.632;2022-09-13T10:44:19;3.07;;;1.10;;
23416;SDS011;11881;42.432;25.632;2022-09-13T10:46:46;2.00;;;1.40;;
23416;SDS011;11881;42.432;25.632;2022-09-13T10:57:43;4.27;;;1.27;;
23416;SDS011;11881;42.432;25.632;2022-09-13T11:00:19;2.87;;;1.40;;
23416;SDS011;11881;42.432;25.632;2022-09-13T11:11:36;3.13;;;1.00;;
23416;SDS011;11881;42.432;25.632;2022-09-13T11:14:17;4.03;;;1.20;;
23416;SDS011;11881;42.432;25.632;2022-09-13T11:37:56;2.83;;;1.60;;
23416;SDS011;11881;42.432;25.632;2022-09-13T11:41:03;3.37;;;1.30;;
23416;SDS011;11881;42.432;25.632;2022-09-13T11:46:48;4.33;;;1.10;;
23416;SDS011;11881;42.432;25.632;2022-09-13T11:53:04;2.03;;;1.30;;
23416;SDS011;11881;42.432;25.632;2022-09-13T11:55:25;3.90;;;1.20;;
23416;SDS011;11881;42.432;25.632;2022-09-13T12:01:01;1.20;;;0.80;;
23416;SDS011;11881;42.432;25.632;2022-09-13T12:03:41;4.03;;;0.90;;
23416;SDS011;11881;42.432;25.632;2022-09-13T12:06:12;5.40;;;1.10;;
23416;SDS011;11881;42.432;25.632;2022-09-13T12:08:46;3.47;;;1.00;;
23416;SDS011;11881;42.432;25.632;2022-09-13T12:11:20;1.07;;;0.67;;
23416;SDS011;11881;42.432;25.632;2022-09-13T12:13:55;1.27;;;0.63;;
23416;SDS011;11881;42.432;25.632;2022-09-13T12:16:26;2.30;;;1.20;;
23416;SDS011;11881;42.432;25.632;2022-09-13T12:21:48;1.33;;;1.20;;
23416;SDS011;11881;42.432;25.632;2022-09-13T12:24:27;3.07;;;1.20;;
23416;SDS011;11881;42.432;25.632;2022-09-13T12:29:39;2.27;;;0.90;;
23416;SDS011;11881;42.432;25.632;2022-09-13T12:32:13;3.80;;;0.70;;
23416;SDS011;11881;42.432;25.632;2022-09-13T12:48:53;0.60;;;0.60;;
23416;SDS011;11881;42.432;25.632;2022-09-13T12:51:48;2.43;;;0.70;;
23416;SDS011;11881;42.432;25.632;2022-09-13T12:58:02;1.27;;;0.80;;
23416;SDS011;11881;42.432;25.632;2022-09-13T13:00:38;3.40;;;0.90;;
23416;SDS011;11881;42.432;25.632;2022-09-13T13:03:14;1.30;;;0.80;;
23416;SDS011;11881;42.432;25.632;2022-09-13T13:05:44;0.90;;;0.70;;
23416;SDS011;11881;42.432;25.632;2022-09-13T13:13:59;1.23;;;0.73;;
23416;SDS011;11881;42.432;25.632;2022-09-13T13:16:36;2.13;;;0.73;;
23416;SDS011;11881;42.432;25.632;2022-09-13T13:24:59;1.30;;;0.70;;
23416;SDS011;11881;42.432;25.632;2022-09-13T13:27:50;1.83;;;1.00;;
23416;SDS011;11881;42.432;25.632;2022-09-13T13:33:26;2.20;;;0.90;;
23416;SDS011;11881;42.432;25.632;2022-09-13T13:35:53;5.30;;;0.80;;
23416;SDS011;11881;42.432;25.632;2022-09-13T13:40:48;2.43;;;0.70;;
23416;SDS011;11881;42.432;25.632;2022-09-13T13:48:36;2.87;;;0.90;;
23416;SDS011;11881;42.432;25.632;2022-09-13T13:53:39;5.30;;;1.00;;
23416;SDS011;11881;42.432;25.632;2022-09-13T13:56:18;2.70;;;0.87;;
23416;SDS011;11881;42.432;25.632;2022-09-13T13:58:50;1.67;;;0.80;;
23416;SDS011;11881;42.432;25.632;2022-09-13T14:01:23;3.93;;;0.80;;
23416;SDS011;11881;42.432;25.632;2022-09-13T14:06:33;5.40;;;1.10;;
23416;SDS011;11881;42.432;25.632;2022-09-13T14:09:19;3.00;;;0.80;;
23416;SDS011;11881;42.432;25.632;2022-09-13T14:19:54;3.50;;;1.47;;
23416;SDS011;11881;42.432;25.632;2022-09-13T14:22:25;4.50;;;1.87;;
23416;SDS011;11881;42.432;25.632;2022-09-13T14:27:28;9.23;;;1.77;;
23416;SDS011;11881;42.432;25.632;2022-09-13T14:30:01;3.57;;;1.20;;
23416;SDS011;11881;42.432;25.632;2022-09-13T14:32:31;8.17;;;2.40;;
23416;SDS011;11881;42.432;25.632;2022-09-13T14:35:17;3.23;;;1.70;;
23416;SDS011;11881;42.432;25.632;2022-09-13T14:37:48;5.50;;;1.90;;
23416;SDS011;11881;42.432;25.632;2022-09-13T14:40:19;10.90;;;1.87;;
23416;SDS011;11881;42.432;25.632;2022-09-13T14:42:53;5.10;;;1.40;;
23416;SDS011;11881;42.432;25.632;2022-09-13T14:50:45;5.20;;;1.37;;
23416;SDS011;11881;42.432;25.632;2022-09-13T14:53:24;4.07;;;0.97;;
23416;SDS011;11881;42.432;25.632;2022-09-13T14:55:55;5.40;;;1.30;;
23416;SDS011;11881;42.432;25.632;2022-09-13T14:58:43;7.80;;;1.00;;
23416;SDS011;11881;42.432;25.632;2022-09-13T15:01:13;2.63;;;1.00;;
23416;SDS011;11881;42.432;25.632;2022-09-13T15:03:42;5.53;;;1.33;;
23416;SDS011;11881;42.432;25.632;2022-09-13T15:06:18;5.50;;;1.00;;
23416;SDS011;11881;42.432;25.632;2022-09-13T15:08:49;5.60;;;1.00;;
23416;SDS011;11881;42.432;25.632;2022-09-13T15:11:35;4.40;;;0.90;;
23416;SDS011;11881;42.432;25.632;2022-09-13T15:14:42;6.53;;;1.10;;
23416;SDS011;11881;42.432;25.632;2022-09-13T15:17:11;42.07;;;4.00;;
23416;SDS011;11881;42.432;25.632;2022-09-13T15:22:30;21.83;;;3.37;;
23416;SDS011;11881;42.432;25.632;2022-09-13T15:24:57;26.70;;;2.27;;
23416;SDS011;11881;42.432;25.632;2022-09-13T15:27:26;20.47;;;1.67;;
23416;SDS011;11881;42.432;25.632;2022-09-13T15:29:54;7.13;;;0.90;;
23416;SDS011;11881;42.432;25.632;2022-09-13T15:32:21;13.13;;;1.30;;
23416;SDS011;11881;42.432;25.632;2022-09-13T15:34:54;3.57;;;1.10;;
23416;SDS011;11881;42.432;25.632;2022-09-13T15:37:27;4.63;;;1.43;;
23416;SDS011;11881;42.432;25.632;2022-09-13T15:40:13;5.03;;;1.73;;
23416;SDS011;11881;42.432;25.632;2022-09-13T15:42:39;4.90;;;1.37;;
23416;SDS011;11881;42.432;25.632;2022-09-13T15:45:05;7.10;;;1.83;;
23416;SDS011;11881;42.432;25.632;2022-09-13T15:47:31;5.83;;;1.63;;
23416;SDS011;11881;42.432;25.632;2022-09-13T15:49:56;3.77;;;1.20;;
23416;SDS011;11881;42.432;25.632;2022-09-13T15:52:22;2.77;;;1.20;;
23416;SDS011;11881;42.432;25.632;2022-09-13T15:54:48;5.90;;;1.03;;
23416;SDS011;11881;42.432;25.632;2022-09-13T15:57:16;2.00;;;0.90;;
23416;SDS011;11881;42.432;25.632;2022-09-13T15:59:46;2.70;;;1.20;;
23416;SDS011;11881;42.432;25.632;2022-09-13T16:02:19;3.03;;;1.00;;
23416;SDS011;11881;42.432;25.632;2022-09-13T16:04:52;10.83;;;1.30;;
23416;SDS011;11881;42.432;25.632;2022-09-13T16:07:19;3.27;;;1.20;;
23416;SDS011;11881;42.432;25.632;2022-09-13T16:09:45;5.63;;;1.03;;
23416;SDS011;11881;42.432;25.632;2022-09-13T16:12:12;3.40;;;1.00;;
23416;SDS011;11881;42.432;25.632;2022-09-13T16:14:37;3.93;;;0.90;;
23416;SDS011;11881;42.432;25.632;2022-09-13T16:17:24;2.47;;;1.00;;
23416;SDS011;11881;42.432;25.632;2022-09-13T16:19:50;3.10;;;0.83;;
23416;SDS011;11881;42.432;25.632;2022-09-13T16:22:15;2.90;;;0.87;;
23416;SDS011;11881;42.432;25.632;2022-09-13T16:24:41;4.80;;;1.10;;
23416;SDS011;11881;42.432;25.632;2022-09-13T16:27:08;3.03;;;1.33;;
23416;SDS011;11881;42.432;25.632;2022-09-13T16:29:36;1.60;;;1.00;;
23416;SDS011;11881;42.432;25.632;2022-09-13T16:32:01;5.63;;;1.63;;
23416;SDS011;11881;42.432;25.632;2022-09-13T16:34:27;4.57;;;1.40;;
23416;SDS011;11881;42.432;25.632;2022-09-13T16:36:52;3.20;;;1.50;;
23416;SDS011;11881;42.432;25.632;2022-09-13T16:39:18;4.63;;;1.40;;
23416;SDS011;11881;42.432;25.632;2022-09-13T16:41:43;10.70;;;1.27;;
23416;SDS011;11881;42.432;25.632;2022-09-13T16:44:09;6.17;;;1.10;;
23416;SDS011;11881;42.432;25.632;2022-09-13T16:46:35;3.90;;;1.03;;
23416;SDS011;11881;42.432;25.632;2022-09-13T16:49:01;4.57;;;1.00;;
23416;SDS011;11881;42.432;25.632;2022-09-13T16:51:27;3.60;;;1.20;;
23416;SDS011;11881;42.432;25.632;2022-09-13T16:53:53;4.73;;;1.20;;
23416;SDS011;11881;42.432;25.632;2022-09-13T16:56:19;6.40;;;0.90;;
23416;SDS011;11881;42.432;25.632;2022-09-13T16:58:47;2.23;;;0.80;;
23416;SDS011;11881;42.432;25.632;2022-09-13T17:01:15;2.63;;;0.90;;
23416;SDS011;11881;42.432;25.632;2022-09-13T17:03:43;4.00;;;1.07;;
23416;SDS011;11881;42.432;25.632;2022-09-13T17:06:10;8.43;;;1.00;;
23416;SDS011;11881;42.432;25.632;2022-09-13T17:08:38;2.77;;;0.80;;
23416;SDS011;11881;42.432;25.632;2022-09-13T17:11:05;2.27;;;1.00;;
23416;SDS011;11881;42.432;25.632;2022-09-13T17:13:33;2.33;;;1.10;;
23416;SDS011;11881;42.432;25.632;2022-09-13T17:15:59;3.13;;;0.93;;
23416;SDS011;11881;42.432;25.632;2022-09-13T17:18:25;5.57;;;1.20;;
23416;SDS011;11881;42.432;25.632;2022-09-13T17:20:50;1.73;;;1.30;;
23416;SDS011;11881;42.432;25.632;2022-09-13T17:23:16;3.83;;;1.30;;
23416;SDS011;11881;42.432;25.632;2022-09-13T17:25:42;5.97;;;1.33;;
23416;SDS011;11881;42.432;25.632;2022-09-13T17:28:19;4.50;;;1.40;;
23416;SDS011;11881;42.432;25.632;2022-09-13T17:30:45;1.67;;;1.30;;
23416;SDS011;11881;42.432;25.632;2022-09-13T17:33:11;2.93;;;1.80;;
23416;SDS011;11881;42.432;25.632;2022-09-13T17:35:37;2.40;;;1.80;;
23416;SDS011;11881;42.432;25.632;2022-09-13T17:38:03;4.47;;;1.40;;
23416;SDS011;11881;42.432;25.632;2022-09-13T17:40:30;2.67;;;1.50;;
23416;SDS011;11881;42.432;25.632;2022-09-13T17:42:56;4.67;;;1.50;;
23416;SDS011;11881;42.432;25.632;2022-09-13T17:45:22;2.20;;;1.20;;
23416;SDS011;11881;42.432;25.632;2022-09-13T17:47:51;4.57;;;1.70;;
23416;SDS011;11881;42.432;25.632;2022-09-13T17:50:17;6.60;;;2.00;;
23416;SDS011;11881;42.432;25.632;2022-09-13T17:52:43;8.17;;;2.00;;
23416;SDS011;11881;42.432;25.632;2022-09-13T17:55:09;6.23;;;2.03;;
23416;SDS011;11881;42.432;25.632;2022-09-13T17:57:34;8.90;;;2.20;;
23416;SDS011;11881;42.432;25.632;2022-09-13T18:00:00;7.80;;;1.90;;
23416;SDS011;11881;42.432;25.632;2022-09-13T18:02:26;4.67;;;2.00;;
23416;SDS011;11881;42.432;25.632;2022-09-13T18:04:52;4.87;;;2.00;;
23416;SDS011;11881;42.432;25.632;2022-09-13T18:07:18;7.87;;;2.10;;
23416;SDS011;11881;42.432;25.632;2022-09-13T18:09:43;3.83;;;1.87;;
23416;SDS011;11881;42.432;25.632;2022-09-13T18:12:09;5.30;;;2.30;;
23416;SDS011;11881;42.432;25.632;2022-09-13T18:14:35;4.33;;;1.90;;
23416;SDS011;11881;42.432;25.632;2022-09-13T18:17:02;4.47;;;1.30;;